createdAt,value
2017-11-23T00:00:46.894Z,4.20
2017-11-23T00:03:14.352Z,4.20
2017-11-23T00:05:41.850Z,4.00
2017-11-23T00:08:09.308Z,3.90
2017-11-23T00:10:36.751Z,3.60
2017-11-23T00:13:04.204Z,3.40
2017-11-23T00:15:31.647Z,3.40
2017-11-23T00:17:59.103Z,3.30
2017-11-23T00:20:26.591Z,3.30
2017-11-23T00:22:54.039Z,3.40
2017-11-23T00:25:21.482Z,3.50
2017-11-23T00:27:48.930Z,3.40
2017-11-23T00:30:16.375Z,3.30
2017-11-23T00:32:43.874Z,3.30
2017-11-23T00:35:11.324Z,3.20
2017-11-23T00:37:38.795Z,3.00
2017-11-23T00:40:06.236Z,2.90
2017-11-23T00:42:33.684Z,3.00
2017-11-23T00:45:01.143Z,3.10
2017-11-23T00:47:28.613Z,3.10
2017-11-23T00:49:56.064Z,3.20
2017-11-23T00:52:23.510Z,3.30
2017-11-23T00:54:50.984Z,3.30
2017-11-23T00:57:18.614Z,3.30
2017-11-23T00:59:46.099Z,3.40
2017-11-23T01:02:13.542Z,3.60
2017-11-23T01:04:41.000Z,3.80
2017-11-23T01:07:08.467Z,3.90
2017-11-23T01:09:36.026Z,4.10
2017-11-23T01:12:03.486Z,3.80
2017-11-23T01:14:30.999Z,3.70
2017-11-23T01:16:58.405Z,3.50
2017-11-23T01:19:26.657Z,3.00
2017-11-23T01:21:59.796Z,3.00
2017-11-23T01:24:28.015Z,3.20
2017-11-23T01:26:55.503Z,3.20
2017-11-23T01:29:22.959Z,3.30
2017-11-23T01:31:50.398Z,3.30
2017-11-23T01:34:17.851Z,3.30
2017-11-23T01:36:45.302Z,3.20
2017-11-23T01:39:12.747Z,3.10
2017-11-23T01:41:40.236Z,2.90
2017-11-23T01:44:07.700Z,2.80
2017-11-23T01:46:35.135Z,2.70
2017-11-23T01:49:02.595Z,2.60
2017-11-23T01:51:30.034Z,2.60
2017-11-23T01:53:57.484Z,2.70
2017-11-23T01:56:24.926Z,2.70
2017-11-23T01:58:52.371Z,2.70
2017-11-23T02:01:20.586Z,2.80
2017-11-23T02:03:48.031Z,2.80
2017-11-23T02:06:15.490Z,2.90
2017-11-23T02:08:42.926Z,2.90
2017-11-23T02:11:10.383Z,3.00
2017-11-23T02:13:38.589Z,2.80
2017-11-23T02:16:06.050Z,2.80
2017-11-23T02:18:33.490Z,2.80
2017-11-23T02:21:00.946Z,2.80
2017-11-23T02:23:28.392Z,2.90
2017-11-23T02:25:55.839Z,2.90
2017-11-23T02:28:23.288Z,3.00
2017-11-23T02:30:51.518Z,3.10
2017-11-23T02:33:18.954Z,3.10
2017-11-23T02:35:46.415Z,3.20
2017-11-23T02:38:13.858Z,3.00
2017-11-23T02:40:41.344Z,2.90
2017-11-23T02:43:08.795Z,3.00
2017-11-23T02:45:36.291Z,3.20
2017-11-23T02:48:04.543Z,3.40
2017-11-23T02:50:32.093Z,3.30
2017-11-23T02:52:59.539Z,3.30
2017-11-23T02:55:26.995Z,3.30
2017-11-23T02:57:54.471Z,3.30
2017-11-23T03:00:21.922Z,3.30
2017-11-23T03:02:49.368Z,3.30
2017-11-23T03:05:16.818Z,3.40
2017-11-23T03:07:44.261Z,3.40
2017-11-23T03:10:11.708Z,3.40
2017-11-23T03:12:39.154Z,3.30
2017-11-23T03:15:06.607Z,3.30
2017-11-23T03:17:34.830Z,3.30
2017-11-23T03:20:02.276Z,3.30
2017-11-23T03:22:29.731Z,3.30
2017-11-23T03:24:57.180Z,3.30
2017-11-23T03:27:24.635Z,3.30
2017-11-23T03:29:52.078Z,3.50
2017-11-23T03:32:19.526Z,3.40
2017-11-23T03:34:46.970Z,3.20
2017-11-23T03:37:15.192Z,3.10
2017-11-23T03:39:42.637Z,3.10
2017-11-23T03:42:10.092Z,2.90
2017-11-23T03:44:37.538Z,2.70
2017-11-23T03:47:05.037Z,2.50
2017-11-23T03:49:32.493Z,2.30
2017-11-23T03:51:59.943Z,2.20
2017-11-23T03:54:27.388Z,2.10
2017-11-23T03:56:54.848Z,2.00
2017-11-23T03:59:22.284Z,2.00
2017-11-23T04:01:49.735Z,2.10
2017-11-23T04:04:17.235Z,2.10
2017-11-23T04:06:44.685Z,2.00
2017-11-23T04:09:12.138Z,1.90
2017-11-23T04:11:39.595Z,1.90
2017-11-23T04:14:07.054Z,2.00
2017-11-23T04:16:34.611Z,2.00
2017-11-23T04:19:02.055Z,2.10
2017-11-23T04:21:29.527Z,2.10
2017-11-23T04:23:56.981Z,2.20
2017-11-23T04:26:24.424Z,2.10
2017-11-23T04:28:51.890Z,2.00
2017-11-23T04:31:19.339Z,1.90
2017-11-23T04:33:46.784Z,1.90
2017-11-23T04:36:14.226Z,1.90
2017-11-23T04:38:41.678Z,2.00
2017-11-23T04:41:09.181Z,2.10
2017-11-23T04:43:36.638Z,2.30
2017-11-23T04:46:04.082Z,2.50
2017-11-23T04:48:31.538Z,2.70
2017-11-23T04:50:58.976Z,2.90
2017-11-23T04:53:26.428Z,3.10
2017-11-23T04:55:54.026Z,3.30
2017-11-23T04:58:21.480Z,3.30
2017-11-23T05:00:48.919Z,3.00
2017-11-23T05:03:16.383Z,2.80
2017-11-23T05:05:43.875Z,2.50
2017-11-23T05:08:11.326Z,2.30
2017-11-23T05:10:38.776Z,2.10
2017-11-23T05:13:06.220Z,2.10
2017-11-23T05:15:33.687Z,2.00
2017-11-23T05:18:01.235Z,1.90
2017-11-23T05:20:28.687Z,2.10
2017-11-23T05:22:56.149Z,2.20
2017-11-23T05:25:23.599Z,2.00
2017-11-23T05:27:51.055Z,1.90
2017-11-23T05:30:18.502Z,1.90
2017-11-23T05:32:45.971Z,1.90
2017-11-23T05:35:13.426Z,1.90
2017-11-23T05:37:40.887Z,2.10
2017-11-23T05:40:08.343Z,2.30
2017-11-23T05:42:35.785Z,2.40
2017-11-23T05:45:03.260Z,2.20
2017-11-23T05:47:30.690Z,2.10
2017-11-23T05:49:58.142Z,2.10
2017-11-23T05:52:25.651Z,2.40
2017-11-23T05:54:53.102Z,2.50
2017-11-23T05:57:20.541Z,2.80
2017-11-23T05:59:48.002Z,2.90
2017-11-23T06:02:15.456Z,3.10
2017-11-23T06:04:42.914Z,3.10
2017-11-23T06:07:10.353Z,3.00
2017-11-23T06:09:37.815Z,3.10
2017-11-23T06:12:05.277Z,3.00
2017-11-23T06:14:32.714Z,2.90
2017-11-23T06:17:00.166Z,3.00
2017-11-23T06:19:27.626Z,3.10
2017-11-23T06:21:55.058Z,2.90
2017-11-23T06:24:22.506Z,2.70
2017-11-23T06:26:50.719Z,2.70
2017-11-23T06:29:18.182Z,2.70
2017-11-23T06:31:45.622Z,2.80
2017-11-23T06:34:13.075Z,3.00
2017-11-23T06:36:40.526Z,3.20
2017-11-23T06:39:08.022Z,3.40
2017-11-23T06:41:35.476Z,3.50
2017-11-23T06:44:03.034Z,3.50
2017-11-23T06:46:30.495Z,3.40
2017-11-23T06:48:57.938Z,3.40
2017-11-23T06:51:25.398Z,3.30
2017-11-23T06:53:52.858Z,3.30
2017-11-23T06:56:20.294Z,3.50
2017-11-23T06:58:47.734Z,3.50
2017-11-23T07:01:15.191Z,3.60
2017-11-23T07:03:42.690Z,3.80
2017-11-23T07:06:10.142Z,3.90
2017-11-23T07:08:37.590Z,4.10
2017-11-23T07:11:05.064Z,4.30
2017-11-23T07:13:32.512Z,4.00
2017-11-23T07:15:59.969Z,3.80
2017-11-23T07:18:27.446Z,3.80
2017-11-23T07:20:54.895Z,4.00
2017-11-23T07:23:22.334Z,4.20
2017-11-23T07:25:49.796Z,4.50
2017-11-23T07:28:19.194Z,4.90
2017-11-23T07:30:46.665Z,5.20
2017-11-23T07:33:14.110Z,5.60
2017-11-23T07:35:41.569Z,5.90
2017-11-23T07:38:09.041Z,6.10
2017-11-23T07:40:36.499Z,6.30
2017-11-23T07:43:03.954Z,6.50
2017-11-23T07:45:32.922Z,6.90
2017-11-23T07:48:00.396Z,6.90
2017-11-23T07:50:27.849Z,6.90
2017-11-23T07:52:55.295Z,7.00
2017-11-23T07:55:22.863Z,7.10
2017-11-23T07:57:50.315Z,7.20
2017-11-23T08:00:17.874Z,7.30
2017-11-23T08:02:45.321Z,7.40
2017-11-23T08:05:12.774Z,7.60
2017-11-23T08:07:40.239Z,7.60
2017-11-23T08:10:07.693Z,7.60
2017-11-23T08:12:35.154Z,7.50
2017-11-23T08:15:02.606Z,7.40
2017-11-23T08:17:30.064Z,7.50
2017-11-23T08:19:57.515Z,7.60
2017-11-23T08:22:24.987Z,7.80
2017-11-23T08:24:52.427Z,7.90
2017-11-23T08:27:19.886Z,8.20
2017-11-23T08:29:47.342Z,8.50
2017-11-23T08:32:14.806Z,8.70
2017-11-23T08:34:42.273Z,8.90
2017-11-23T08:37:09.726Z,9.00
2017-11-23T08:39:37.175Z,9.20
2017-11-23T08:42:04.637Z,9.40
2017-11-23T08:44:32.083Z,9.50
2017-11-23T08:46:59.663Z,9.50
2017-11-23T08:49:27.122Z,9.60
2017-11-23T08:51:54.591Z,9.70
2017-11-23T08:54:22.038Z,9.80
2017-11-23T08:56:51.311Z,9.90
2017-11-23T08:59:18.771Z,9.80
2017-11-23T09:01:47.041Z,9.70
2017-11-23T09:04:14.491Z,9.70
2017-11-23T09:06:41.955Z,9.70
2017-11-23T09:09:09.406Z,9.80
2017-11-23T09:11:36.863Z,9.80
2017-11-23T09:14:04.317Z,9.80
2017-11-23T09:16:31.787Z,9.90
2017-11-23T09:18:59.243Z,10.00
2017-11-23T09:21:26.691Z,10.20
2017-11-23T09:23:54.171Z,10.30
2017-11-23T09:26:21.623Z,10.40
2017-11-23T09:28:49.190Z,10.60
2017-11-23T09:31:16.748Z,10.80
2017-11-23T09:33:45.732Z,10.70
2017-11-23T09:36:13.195Z,10.70
2017-11-23T09:38:40.654Z,10.60
2017-11-23T09:41:08.111Z,10.50
2017-11-23T09:43:35.670Z,10.30
2017-11-23T09:46:03.126Z,10.40
2017-11-23T09:48:30.596Z,10.40
2017-11-23T09:50:58.071Z,10.70
2017-11-23T09:53:26.300Z,11.10
2017-11-23T09:55:53.754Z,11.10
2017-11-23T09:58:21.258Z,11.10
2017-11-23T10:00:48.702Z,11.20
2017-11-23T10:03:16.167Z,11.40
2017-11-23T10:05:44.394Z,11.40
2017-11-23T10:08:11.874Z,11.40
2017-11-23T10:10:39.331Z,10.90
2017-11-23T10:13:07.567Z,10.70
2017-11-23T10:15:37.927Z,10.70
2017-11-23T10:18:05.391Z,11.00
2017-11-23T10:20:32.838Z,11.40
2017-11-23T10:23:00.294Z,11.80
2017-11-23T10:25:27.759Z,12.20
2017-11-23T10:27:55.229Z,12.50
2017-11-23T10:30:22.665Z,12.70
2017-11-23T10:32:50.110Z,12.70
2017-11-23T10:35:17.577Z,12.80
2017-11-23T10:37:45.033Z,12.70
2017-11-23T10:40:12.485Z,12.70
2017-11-23T10:42:39.942Z,12.60
2017-11-23T10:45:07.417Z,12.70
2017-11-23T10:47:34.859Z,12.80
2017-11-23T10:50:02.318Z,13.00
2017-11-23T10:52:29.771Z,13.30
2017-11-23T10:54:57.230Z,13.50
2017-11-23T10:57:24.686Z,13.60
2017-11-23T10:59:52.258Z,13.70
2017-11-23T11:02:19.712Z,13.80
2017-11-23T11:04:47.167Z,13.80
2017-11-23T11:07:14.624Z,13.80
2017-11-23T11:09:42.083Z,13.90
2017-11-23T11:12:09.540Z,14.00
2017-11-23T11:14:36.994Z,14.10
2017-11-23T11:17:04.454Z,14.10
2017-11-23T11:19:31.914Z,14.40
2017-11-23T11:21:59.369Z,14.60
2017-11-23T11:24:26.830Z,14.60
2017-11-23T11:26:54.282Z,14.60
2017-11-23T11:29:21.749Z,14.70
2017-11-23T11:31:49.198Z,14.80
2017-11-23T11:34:16.659Z,15.00
2017-11-23T11:36:44.122Z,15.40
2017-11-23T11:39:11.561Z,15.60
2017-11-23T11:41:39.025Z,15.70
2017-11-23T11:44:06.475Z,15.80
2017-11-23T11:46:33.935Z,15.80
2017-11-23T11:49:01.385Z,15.70
2017-11-23T11:51:28.851Z,15.70
2017-11-23T11:53:56.318Z,15.70
2017-11-23T11:56:23.771Z,15.60
2017-11-23T11:58:51.231Z,15.50
2017-11-23T12:01:18.686Z,15.50
2017-11-23T12:03:46.145Z,15.40
2017-11-23T12:06:13.622Z,15.30
2017-11-23T12:08:42.190Z,15.10
2017-11-23T12:11:09.727Z,15.10
2017-11-23T12:13:37.174Z,15.00
2017-11-23T12:16:16.655Z,15.00
2017-11-23T12:18:56.734Z,14.90
2017-11-23T12:21:26.033Z,14.90
2017-11-23T12:24:05.512Z,15.00
2017-11-23T12:26:32.962Z,15.20
2017-11-23T12:29:12.083Z,15.50
2017-11-23T12:31:39.540Z,15.70
2017-11-23T12:34:06.983Z,15.90
2017-11-23T12:36:34.445Z,16.10
2017-11-23T12:39:01.899Z,16.30
2017-11-23T12:41:29.358Z,16.30
2017-11-23T12:43:56.814Z,16.10
2017-11-23T12:46:24.288Z,16.10
2017-11-23T12:48:51.729Z,16.20
2017-11-23T12:51:19.191Z,16.20
2017-11-23T12:53:46.643Z,16.30
2017-11-23T12:56:14.131Z,16.50
2017-11-23T12:58:41.579Z,16.60
2017-11-23T13:01:09.041Z,16.50
2017-11-23T13:03:36.495Z,16.30
2017-11-23T13:06:03.947Z,16.20
2017-11-23T13:08:31.399Z,16.20
2017-11-23T13:10:58.865Z,16.10
2017-11-23T13:13:26.311Z,16.20
2017-11-23T13:15:53.763Z,16.30
2017-11-23T13:18:21.226Z,16.50
2017-11-23T13:20:48.683Z,16.50
2017-11-23T13:23:16.264Z,16.60
2017-11-23T13:25:43.709Z,16.60
2017-11-23T13:28:11.177Z,16.60
2017-11-23T13:30:38.631Z,16.70
2017-11-23T13:33:06.088Z,16.80
2017-11-23T13:35:33.549Z,17.00
2017-11-23T13:38:00.998Z,17.10
2017-11-23T13:40:28.455Z,17.00
2017-11-23T13:42:55.918Z,16.70
2017-11-23T13:45:23.366Z,16.60
2017-11-23T13:47:50.822Z,16.60
2017-11-23T13:50:18.281Z,16.80
2017-11-23T13:52:45.739Z,17.00
2017-11-23T13:55:13.195Z,16.90
2017-11-23T13:57:40.660Z,16.80
2017-11-23T14:00:08.116Z,16.90
2017-11-23T14:02:35.580Z,16.80
2017-11-23T14:05:03.028Z,16.70
2017-11-23T14:07:30.483Z,16.70
2017-11-23T14:09:57.938Z,16.70
2017-11-23T14:12:25.398Z,16.80
2017-11-23T14:14:52.854Z,16.70
2017-11-23T14:17:20.319Z,16.60
2017-11-23T14:19:47.774Z,16.50
2017-11-23T14:22:15.247Z,16.40
2017-11-23T14:24:43.460Z,16.30
2017-11-23T14:27:10.931Z,16.30
2017-11-23T14:29:38.387Z,16.50
2017-11-23T14:32:05.977Z,16.50
2017-11-23T14:34:33.406Z,16.50
2017-11-23T14:37:00.859Z,16.50
2017-11-23T14:39:28.319Z,16.40
2017-11-23T14:41:55.774Z,16.40
2017-11-23T14:44:23.235Z,16.30
2017-11-23T14:46:50.691Z,16.20
2017-11-23T14:49:18.150Z,16.10
2017-11-23T14:51:45.609Z,16.00
2017-11-23T14:54:13.166Z,15.90
2017-11-23T14:56:40.623Z,15.80
2017-11-23T14:59:08.079Z,15.60
2017-11-23T15:01:35.544Z,15.50
2017-11-23T15:04:02.998Z,15.30
2017-11-23T15:06:30.451Z,15.30
2017-11-23T15:08:57.918Z,15.30
2017-11-23T15:11:25.366Z,15.20
2017-11-23T15:13:52.826Z,15.20
2017-11-23T15:16:20.287Z,15.10
2017-11-23T15:18:47.757Z,15.10
2017-11-23T15:21:15.203Z,15.10
2017-11-23T15:23:42.659Z,15.00
2017-11-23T15:26:10.928Z,14.80
2017-11-23T15:28:38.391Z,14.80
2017-11-23T15:31:05.854Z,14.80
2017-11-23T15:33:33.310Z,14.70
2017-11-23T15:36:00.770Z,14.60
2017-11-23T15:38:28.245Z,14.60
2017-11-23T15:40:56.454Z,14.50
2017-11-23T15:43:23.911Z,14.50
2017-11-23T15:45:51.421Z,14.50
2017-11-23T15:48:19.204Z,14.40
2017-11-23T15:50:47.417Z,14.30
2017-11-23T15:53:14.867Z,14.30
2017-11-23T15:55:42.324Z,14.20
2017-11-23T15:58:09.880Z,14.20
2017-11-23T16:00:37.332Z,14.10
2017-11-23T16:03:04.822Z,14.10
2017-11-23T16:05:32.279Z,14.20
2017-11-23T16:07:59.738Z,14.20
2017-11-23T16:10:27.203Z,14.20
2017-11-23T16:12:54.696Z,14.10
2017-11-23T16:15:22.912Z,13.90
2017-11-23T16:17:50.362Z,13.90
2017-11-23T16:20:17.831Z,13.90
2017-11-23T16:22:45.333Z,13.80
2017-11-23T16:25:13.561Z,13.70
2017-11-23T16:27:41.014Z,13.70
2017-11-23T16:30:08.474Z,13.70
2017-11-23T16:32:35.965Z,13.70
2017-11-23T16:35:03.412Z,13.70
2017-11-23T16:37:36.668Z,13.60
2017-11-23T16:40:08.031Z,13.60
2017-11-23T16:42:54.353Z,13.60
2017-11-23T16:45:27.350Z,13.50
2017-11-23T16:48:00.524Z,13.50
2017-11-23T16:50:48.710Z,13.50
2017-11-23T16:53:21.860Z,13.50
2017-11-23T16:55:54.987Z,13.60
2017-11-23T16:58:34.087Z,13.50
2017-11-23T17:01:07.261Z,13.50
2017-11-23T17:03:50.561Z,13.40
2017-11-23T17:06:23.789Z,13.50
2017-11-23T17:09:06.160Z,13.50
2017-11-23T17:11:42.559Z,13.40
2017-11-23T17:14:16.057Z,13.40
2017-11-23T17:16:48.173Z,13.40
2017-11-23T17:19:17.251Z,13.40
2017-11-23T17:21:45.513Z,13.20
2017-11-23T17:24:12.963Z,13.20
2017-11-23T17:26:40.548Z,13.10
2017-11-23T17:29:08.754Z,12.90
2017-11-23T17:31:36.258Z,12.90
2017-11-23T17:34:03.700Z,12.80
2017-11-23T17:36:31.154Z,12.60
2017-11-23T17:38:58.615Z,12.50
2017-11-23T17:41:26.100Z,12.40
2017-11-23T17:43:54.322Z,12.20
2017-11-23T17:46:21.791Z,12.20
2017-11-23T17:48:49.259Z,12.10
2017-11-23T17:51:16.756Z,12.00
2017-11-23T17:53:45.022Z,11.80
2017-11-23T17:56:13.276Z,11.70
2017-11-23T17:58:40.732Z,11.60
2017-11-23T18:01:08.220Z,11.50
2017-11-23T18:03:36.435Z,11.40
2017-11-23T18:06:03.901Z,11.30
2017-11-23T18:08:31.416Z,11.40
2017-11-23T18:10:58.861Z,11.40
2017-11-23T18:13:27.116Z,11.30
2017-11-23T18:15:54.615Z,11.30
2017-11-23T18:18:22.072Z,11.40
2017-11-23T18:20:49.563Z,11.50
2017-11-23T18:23:17.035Z,11.50
2017-11-23T18:25:44.490Z,11.50
2017-11-23T18:28:11.946Z,11.40
2017-11-23T18:30:39.454Z,11.40
2017-11-23T18:33:06.949Z,11.40
2017-11-23T18:35:34.440Z,11.30
2017-11-23T18:38:02.654Z,11.40
2017-11-23T18:40:30.166Z,11.40
2017-11-23T18:42:57.618Z,11.40
2017-11-23T18:45:25.158Z,11.30
2017-11-23T18:47:52.605Z,11.30
2017-11-23T18:50:20.067Z,11.30
2017-11-23T18:52:47.526Z,11.40
2017-11-23T18:55:15.024Z,11.30
2017-11-23T18:57:43.269Z,11.40
2017-11-23T19:00:10.769Z,11.40
2017-11-23T19:02:39.012Z,11.50
2017-11-23T19:05:06.491Z,11.40
2017-11-23T19:07:33.949Z,11.50
2017-11-23T19:10:01.676Z,11.50
2017-11-23T19:12:29.176Z,11.50
2017-11-23T19:14:56.638Z,11.50
2017-11-23T19:17:24.104Z,11.60
2017-11-23T19:19:51.606Z,11.70
2017-11-23T19:22:19.234Z,11.70
2017-11-23T19:24:46.682Z,11.70
2017-11-23T19:27:14.197Z,11.80
2017-11-23T19:29:41.782Z,11.80
2017-11-23T19:32:10.039Z,11.70
2017-11-23T19:34:37.529Z,11.70
2017-11-23T19:37:04.975Z,11.70
2017-11-23T19:39:32.481Z,11.70
2017-11-23T19:42:00.072Z,11.60
2017-11-23T19:44:28.336Z,11.60
2017-11-23T19:46:55.842Z,11.50
2017-11-23T19:49:23.324Z,11.50
2017-11-23T19:51:50.813Z,11.60
2017-11-23T19:54:18.308Z,11.50
2017-11-23T19:56:45.776Z,11.50
2017-11-23T19:59:13.226Z,11.40
2017-11-23T20:01:40.721Z,11.40
2017-11-23T20:04:08.210Z,11.30
2017-11-23T20:06:36.478Z,11.50
2017-11-23T20:09:04.065Z,11.50
2017-11-23T20:11:31.569Z,11.40
2017-11-23T20:13:59.066Z,11.30
2017-11-23T20:16:27.342Z,11.40
2017-11-23T20:18:55.615Z,11.40
2017-11-23T20:21:23.882Z,11.40
2017-11-23T20:23:52.155Z,11.40
2017-11-23T20:26:20.443Z,11.40
2017-11-23T20:28:48.706Z,11.40
2017-11-23T20:31:16.289Z,11.40
2017-11-23T20:33:43.798Z,11.50
2017-11-23T20:36:11.297Z,11.50
2017-11-23T20:38:39.566Z,11.70
2017-11-23T20:41:07.786Z,11.60
2017-11-23T20:43:36.188Z,11.60
2017-11-23T20:46:03.671Z,11.60
2017-11-23T20:48:31.955Z,11.80
2017-11-23T20:51:00.159Z,11.80
2017-11-23T20:53:27.662Z,11.70
2017-11-23T20:55:55.145Z,11.80
2017-11-23T20:58:23.398Z,11.70
2017-11-23T21:00:50.897Z,11.70
2017-11-23T21:03:18.388Z,11.80
2017-11-23T21:05:45.888Z,11.80
2017-11-23T21:08:13.386Z,11.80
2017-11-23T21:10:40.826Z,11.80
2017-11-23T21:13:08.319Z,11.80
2017-11-23T21:15:35.828Z,11.90
2017-11-23T21:18:04.097Z,11.80
2017-11-23T21:20:32.305Z,11.80
2017-11-23T21:22:59.819Z,11.80
2017-11-23T21:25:27.966Z,11.70
2017-11-23T21:27:55.469Z,11.60
2017-11-23T21:30:23.720Z,11.50
2017-11-23T21:32:51.181Z,11.50
2017-11-23T21:35:19.458Z,11.60
2017-11-23T21:37:47.724Z,11.60
2017-11-23T21:40:15.219Z,11.60
2017-11-23T21:42:42.721Z,11.60
2017-11-23T21:45:10.167Z,11.70
2017-11-23T21:47:37.674Z,11.80
2017-11-23T21:50:05.896Z,11.80
2017-11-23T21:52:33.371Z,11.70
2017-11-23T21:55:00.881Z,11.80
2017-11-23T21:57:28.434Z,11.90
2017-11-23T22:02:37.462Z,11.90
2017-11-23T22:05:05.707Z,11.90
2017-11-23T22:07:33.214Z,11.90
2017-11-23T22:10:00.705Z,11.90
2017-11-23T22:12:28.179Z,11.90
2017-11-23T22:14:55.674Z,11.90
2017-11-23T22:17:23.925Z,11.90
2017-11-23T22:19:51.423Z,11.90
2017-11-23T22:22:18.909Z,11.90
2017-11-23T22:24:46.396Z,11.80
2017-11-23T22:27:13.979Z,11.90
2017-11-23T22:29:42.313Z,12.00
2017-11-23T22:32:09.812Z,12.00
2017-11-23T22:34:38.046Z,12.20
2017-11-23T22:37:05.536Z,12.20
2017-11-23T22:39:33.207Z,12.20
2017-11-23T22:42:01.455Z,12.10
2017-11-23T22:44:28.944Z,12.10
2017-11-23T22:46:57.199Z,12.10
2017-11-23T22:49:24.647Z,12.10
2017-11-23T22:51:52.152Z,12.10
2017-11-23T22:54:19.595Z,12.10
2017-11-23T22:56:47.050Z,12.20
2017-11-23T22:59:15.311Z,12.20
2017-11-23T23:01:42.792Z,12.10
2017-11-23T23:04:10.244Z,12.00
2017-11-23T23:06:37.750Z,12.10
2017-11-23T23:09:05.306Z,12.10
2017-11-23T23:11:32.801Z,12.00
2017-11-23T23:14:01.015Z,12.00
2017-11-23T23:16:28.570Z,12.00
2017-11-23T23:18:56.021Z,12.10
2017-11-23T23:21:23.489Z,12.00
2017-11-23T23:23:50.946Z,12.00
2017-11-23T23:26:18.429Z,12.00
2017-11-23T23:28:45.882Z,11.90
2017-11-23T23:31:13.439Z,11.90
2017-11-23T23:33:40.898Z,11.90
2017-11-23T23:36:08.363Z,12.00
2017-11-23T23:38:35.814Z,11.90
2017-11-23T23:41:03.278Z,11.80
2017-11-23T23:43:30.730Z,11.70
2017-11-23T23:45:58.288Z,11.60
2017-11-23T23:48:25.813Z,11.50
2017-11-23T23:50:53.267Z,11.40
2017-11-23T23:53:20.714Z,11.10
2017-11-23T23:55:48.187Z,10.90
2017-11-23T23:58:15.639Z,10.80
